createdAt,value
2023-01-21T00:00:20.631Z,51.20
2023-01-21T00:02:49.831Z,45.92
2023-01-21T00:05:18.975Z,47.58
2023-01-21T00:07:48.223Z,55.58
2023-01-21T00:10:18.230Z,54.00
2023-01-21T00:12:48.806Z,59.55
2023-01-21T00:15:18.047Z,58.33
2023-01-21T00:17:47.152Z,54.13
2023-01-21T00:20:16.745Z,63.85
2023-01-21T00:22:46.137Z,65.80
2023-01-21T00:25:15.325Z,81.90
2023-01-21T00:27:44.591Z,79.18
2023-01-21T00:30:14.772Z,72.28
2023-01-21T00:32:44.107Z,72.20
2023-01-21T00:35:13.234Z,72.57
2023-01-21T00:37:42.384Z,69.18
2023-01-21T00:40:15.826Z,77.50
2023-01-21T00:42:50.539Z,64.47
2023-01-21T00:45:19.833Z,74.75
2023-01-21T00:47:48.937Z,77.05
2023-01-21T00:50:18.674Z,74.43
2023-01-21T00:52:47.872Z,71.85
2023-01-21T00:55:17.075Z,74.32
2023-01-21T00:57:46.440Z,76.43
2023-01-21T01:00:17.306Z,63.13
2023-01-21T01:02:49.952Z,61.20
2023-01-21T01:05:20.396Z,65.43
2023-01-21T01:07:51.320Z,54.40
2023-01-21T01:10:20.500Z,56.83
2023-01-21T01:12:51.118Z,61.38
2023-01-21T01:15:20.377Z,63.00
2023-01-21T01:17:49.538Z,49.55
2023-01-21T01:20:21.784Z,53.25
2023-01-21T01:22:50.897Z,48.67
2023-01-21T01:25:20.152Z,46.03
2023-01-21T01:27:51.419Z,40.70
2023-01-21T01:30:23.656Z,51.35
2023-01-21T01:32:52.786Z,68.95
2023-01-21T01:35:21.964Z,43.70
2023-01-21T01:37:51.084Z,40.33
2023-01-21T01:40:20.278Z,37.40
2023-01-21T01:42:49.511Z,29.73
2023-01-21T01:45:23.040Z,29.50
2023-01-21T01:48:03.569Z,37.13
2023-01-21T01:50:38.696Z,32.03
2023-01-21T01:53:09.303Z,37.05
2023-01-21T01:55:40.952Z,36.15
2023-01-21T01:58:17.079Z,44.35
2023-01-21T02:00:46.635Z,36.75
2023-01-21T02:03:36.082Z,27.38
2023-01-21T02:06:05.772Z,27.30
2023-01-21T02:08:37.150Z,29.92
2023-01-21T02:11:18.173Z,34.70
2023-01-21T02:13:55.409Z,27.02
2023-01-21T02:17:12.975Z,33.08
2023-01-21T02:19:47.987Z,33.83
2023-01-21T02:22:55.555Z,33.58
2023-01-21T02:25:59.420Z,28.60
2023-01-21T02:29:08.223Z,28.77
2023-01-21T02:32:34.284Z,27.88
2023-01-21T02:35:22.062Z,33.28
2023-01-21T02:38:14.814Z,30.73
2023-01-21T02:41:27.288Z,26.75
2023-01-21T02:44:46.710Z,21.90
2023-01-21T02:47:50.021Z,30.45
2023-01-21T02:50:33.905Z,29.83
2023-01-21T02:53:05.967Z,23.48
2023-01-21T02:55:40.395Z,32.35
2023-01-21T02:58:16.088Z,24.52
2023-01-21T03:01:12.387Z,25.13
2023-01-21T03:04:07.231Z,26.00
2023-01-21T03:07:30.098Z,23.50
2023-01-21T03:10:17.146Z,24.13
2023-01-21T03:13:42.582Z,26.00
2023-01-21T03:16:33.548Z,30.30
2023-01-21T03:19:08.431Z,27.77
2023-01-21T03:21:38.696Z,21.83
2023-01-21T03:24:09.631Z,27.60
2023-01-21T03:26:47.617Z,30.95
2023-01-21T03:29:24.991Z,20.35
2023-01-21T03:32:04.897Z,27.75
2023-01-21T03:34:45.746Z,24.05
2023-01-21T03:37:42.929Z,28.27
2023-01-21T03:40:34.612Z,27.90
2023-01-21T03:43:04.945Z,24.83
2023-01-21T03:45:54.409Z,28.08
2023-01-21T03:48:53.201Z,22.63
2023-01-21T03:51:30.655Z,25.92
2023-01-21T03:54:01.553Z,24.05
2023-01-21T03:56:31.066Z,18.92
2023-01-21T03:59:00.326Z,21.17
2023-01-21T04:01:29.459Z,23.23
2023-01-21T04:03:58.618Z,21.30
2023-01-21T04:06:27.824Z,32.28
2023-01-21T04:08:56.952Z,30.63
2023-01-21T04:11:26.225Z,32.00
2023-01-21T04:13:55.352Z,33.85
2023-01-21T04:16:24.894Z,36.50
2023-01-21T04:18:54.999Z,33.13
2023-01-21T04:21:24.277Z,37.28
2023-01-21T04:23:53.372Z,34.17
2023-01-21T04:26:22.547Z,27.42
2023-01-21T04:28:51.676Z,31.30
2023-01-21T04:31:20.852Z,33.00
2023-01-21T04:33:49.942Z,34.08
2023-01-21T04:36:19.127Z,28.15
2023-01-21T04:38:48.377Z,31.13
2023-01-21T04:41:17.491Z,32.10
2023-01-21T04:43:46.719Z,33.55
2023-01-21T04:46:15.917Z,23.67
2023-01-21T04:48:45.101Z,26.45
2023-01-21T04:51:14.267Z,22.63
2023-01-21T04:53:43.410Z,22.85
2023-01-21T04:56:12.568Z,19.48
2023-01-21T04:58:41.666Z,26.30
2023-01-21T05:01:10.818Z,40.63
2023-01-21T05:03:39.995Z,19.40
2023-01-21T05:06:09.278Z,23.17
2023-01-21T05:08:38.397Z,20.83
2023-01-21T05:11:10.666Z,20.15
2023-01-21T05:13:39.782Z,17.17
2023-01-21T05:16:10.987Z,20.92
2023-01-21T05:18:41.726Z,20.92
2023-01-21T05:21:11.206Z,17.88
2023-01-21T05:23:40.397Z,18.02
2023-01-21T05:26:09.654Z,17.65
2023-01-21T05:28:38.867Z,17.08
2023-01-21T05:31:08.161Z,25.58
2023-01-21T05:33:37.949Z,17.42
2023-01-21T05:36:07.799Z,19.65
2023-01-21T05:38:36.993Z,15.48
2023-01-21T05:41:07.697Z,17.35
2023-01-21T05:43:36.922Z,19.40
2023-01-21T05:46:06.371Z,19.17
2023-01-21T05:48:35.627Z,18.60
2023-01-21T05:51:04.964Z,18.42
2023-01-21T05:53:34.215Z,22.85
2023-01-21T05:56:03.432Z,20.25
2023-01-21T05:58:32.632Z,13.85
2023-01-21T06:01:01.874Z,17.45
2023-01-21T06:03:31.339Z,15.20
2023-01-21T06:06:00.621Z,20.65
2023-01-21T06:08:29.886Z,20.13
2023-01-21T06:10:59.141Z,18.35
2023-01-21T06:13:28.455Z,18.27
2023-01-21T06:15:58.926Z,17.05
2023-01-21T06:18:28.218Z,14.70
2023-01-21T06:21:01.445Z,14.02
2023-01-21T06:23:30.829Z,14.88
2023-01-21T06:26:04.401Z,16.83
2023-01-21T06:28:33.575Z,17.35
2023-01-21T06:31:02.921Z,24.63
2023-01-21T06:33:32.167Z,18.08
2023-01-21T06:36:01.401Z,15.07
2023-01-21T06:38:30.703Z,14.30
2023-01-21T06:40:59.852Z,20.95
2023-01-21T06:43:29.030Z,17.50
2023-01-21T06:45:58.344Z,16.00
2023-01-21T06:48:27.593Z,16.83
2023-01-21T06:50:56.833Z,17.05
2023-01-21T06:53:26.405Z,16.67
2023-01-21T06:55:55.775Z,23.42
2023-01-21T06:58:25.265Z,14.00
2023-01-21T07:00:58.137Z,13.88
2023-01-21T07:03:27.438Z,14.93
2023-01-21T07:05:56.702Z,19.05
2023-01-21T07:08:25.972Z,18.08
2023-01-21T07:10:55.267Z,14.82
2023-01-21T07:13:24.626Z,17.42
2023-01-21T07:15:54.178Z,15.05
2023-01-21T07:18:23.392Z,14.57
2023-01-21T07:20:52.766Z,17.63
2023-01-21T07:23:21.996Z,24.05
2023-01-21T07:25:51.334Z,18.88
2023-01-21T07:28:21.337Z,18.20
2023-01-21T07:30:50.688Z,18.02
2023-01-21T07:33:20.143Z,20.92
2023-01-21T07:35:49.348Z,18.77
2023-01-21T07:38:18.802Z,16.10
2023-01-21T07:40:52.081Z,15.85
2023-01-21T07:43:21.285Z,14.88
2023-01-21T07:45:51.005Z,17.00
2023-01-21T07:48:20.370Z,13.13
2023-01-21T07:50:49.706Z,24.00
2023-01-21T07:53:18.923Z,14.10
2023-01-21T07:55:48.171Z,15.38
2023-01-21T07:58:17.475Z,16.30
2023-01-21T08:00:46.703Z,16.58
2023-01-21T08:03:16.002Z,21.15
2023-01-21T08:05:47.640Z,20.33
2023-01-21T08:08:16.997Z,13.63
2023-01-21T08:10:46.518Z,14.13
2023-01-21T08:13:15.737Z,13.45
2023-01-21T08:15:45.026Z,15.00
2023-01-21T08:18:14.232Z,16.52
2023-01-21T08:20:44.277Z,15.40
2023-01-21T08:23:13.737Z,14.27
2023-01-21T08:25:43.040Z,12.25
2023-01-21T08:28:12.277Z,13.93
2023-01-21T08:30:41.572Z,22.27
2023-01-21T08:33:10.916Z,13.00
2023-01-21T08:35:40.299Z,10.50
2023-01-21T08:38:09.617Z,18.90
2023-01-21T08:40:38.891Z,21.02
2023-01-21T08:43:10.038Z,13.57
2023-01-21T08:45:39.343Z,11.93
2023-01-21T08:48:08.846Z,19.45
2023-01-21T08:50:38.053Z,13.40
2023-01-21T08:53:07.285Z,16.58
2023-01-21T08:55:36.528Z,18.90
2023-01-21T08:58:05.886Z,14.68
2023-01-21T09:00:35.100Z,15.07
2023-01-21T09:03:04.555Z,21.40
2023-01-21T09:05:33.701Z,18.45
2023-01-21T09:08:02.908Z,13.32
2023-01-21T09:10:50.332Z,35.97
2023-01-21T09:13:20.963Z,31.40
2023-01-21T09:15:51.066Z,15.65
2023-01-21T09:18:20.390Z,40.25
2023-01-21T09:20:49.842Z,14.48
2023-01-21T09:23:25.404Z,30.85
2023-01-21T09:26:15.212Z,16.10
2023-01-21T09:28:47.940Z,13.13
2023-01-21T09:31:21.587Z,19.02
2023-01-21T09:33:56.588Z,20.83
2023-01-21T09:36:29.676Z,27.77
2023-01-21T09:38:59.705Z,36.55
2023-01-21T09:41:55.725Z,18.75
2023-01-21T09:44:47.863Z,22.15
2023-01-21T09:47:42.311Z,20.75
2023-01-21T09:50:23.338Z,24.17
2023-01-21T09:53:01.197Z,23.15
2023-01-21T09:55:45.520Z,19.38
2023-01-21T09:58:41.781Z,12.05
2023-01-21T10:01:22.192Z,19.25
2023-01-21T10:04:16.926Z,19.52
2023-01-21T10:07:17.897Z,19.98
2023-01-21T10:10:18.201Z,17.42
2023-01-21T10:13:23.971Z,15.60
2023-01-21T10:16:18.475Z,18.10
2023-01-21T10:18:52.328Z,18.52
2023-01-21T10:21:45.140Z,26.02
2023-01-21T10:24:34.615Z,14.15
2023-01-21T10:27:03.856Z,21.58
2023-01-21T10:29:39.157Z,21.42
2023-01-21T10:32:15.357Z,23.73
2023-01-21T10:34:54.622Z,24.05
2023-01-21T10:37:45.450Z,21.70
2023-01-21T10:40:46.450Z,17.42
2023-01-21T10:43:40.873Z,23.35
2023-01-21T10:47:11.037Z,25.00
2023-01-21T10:50:01.652Z,25.80
2023-01-21T10:52:41.802Z,28.63
2023-01-21T10:55:35.871Z,23.10
2023-01-21T10:58:29.524Z,28.13
2023-01-21T11:01:05.825Z,28.95
2023-01-21T11:03:55.966Z,33.33
2023-01-21T11:06:27.524Z,36.58
2023-01-21T11:09:06.369Z,35.30
2023-01-21T11:11:38.407Z,40.58
2023-01-21T11:14:07.713Z,56.95
2023-01-21T11:16:45.154Z,53.80
2023-01-21T11:19:18.569Z,50.47
2023-01-21T11:22:18.887Z,49.35
2023-01-21T11:24:51.536Z,59.30
2023-01-21T11:27:36.961Z,72.68
2023-01-21T11:30:26.076Z,70.68
2023-01-21T11:33:20.158Z,70.47
2023-01-21T11:35:50.496Z,60.53
2023-01-21T11:38:35.430Z,50.63
2023-01-21T11:41:17.500Z,50.85
2023-01-21T11:44:15.712Z,45.72
2023-01-21T11:49:25.993Z,53.75
2023-01-21T11:52:20.343Z,55.35
2023-01-21T11:54:50.234Z,50.83
2023-01-21T11:57:34.959Z,61.45
2023-01-21T12:00:21.670Z,61.42
2023-01-21T12:03:03.219Z,50.13
2023-01-21T12:05:44.119Z,49.88
2023-01-21T12:08:24.249Z,49.10
2023-01-21T12:10:57.549Z,42.83
2023-01-21T12:14:06.049Z,41.03
2023-01-21T12:16:53.015Z,46.38
2023-01-21T12:20:04.579Z,45.22
2023-01-21T12:23:22.710Z,52.05
2023-01-21T12:28:50.471Z,47.03
2023-01-21T12:31:56.553Z,41.28
2023-01-21T12:34:28.207Z,46.83
2023-01-21T12:37:12.860Z,45.40
2023-01-21T12:39:43.699Z,64.90
2023-01-21T12:42:35.714Z,51.17
2023-01-21T12:45:30.175Z,50.90
2023-01-21T12:48:26.149Z,39.97
2023-01-21T12:51:14.429Z,56.03
2023-01-21T12:54:10.406Z,43.42
2023-01-21T12:57:08.215Z,41.67
2023-01-21T13:00:02.054Z,40.67
2023-01-21T13:02:50.686Z,40.67
2023-01-21T13:05:51.813Z,49.10
2023-01-21T13:09:11.745Z,44.33
2023-01-21T13:12:12.764Z,64.95
2023-01-21T13:14:49.780Z,56.95
2023-01-21T13:17:29.539Z,63.25
2023-01-21T13:20:01.249Z,62.53
2023-01-21T13:22:43.800Z,51.58
2023-01-21T13:25:31.023Z,48.92
2023-01-21T13:28:35.010Z,51.42
2023-01-21T13:31:21.308Z,48.92
2023-01-21T13:34:21.627Z,49.22
2023-01-21T13:37:03.270Z,43.75
2023-01-21T13:39:43.096Z,46.95
2023-01-21T13:42:55.642Z,46.40
2023-01-21T13:45:54.889Z,39.95
2023-01-21T13:48:51.502Z,36.72
2023-01-21T13:52:03.400Z,45.35
2023-01-21T13:55:15.141Z,47.78
2023-01-21T13:58:07.739Z,48.33
2023-01-21T14:01:11.974Z,44.35
2023-01-21T14:04:07.592Z,54.53
2023-01-21T14:07:04.276Z,52.55
2023-01-21T14:10:03.515Z,55.30
2023-01-21T14:12:38.734Z,50.72
2023-01-21T14:15:48.774Z,40.72
2023-01-21T14:19:04.567Z,47.47
2023-01-21T14:22:03.928Z,46.15
2023-01-21T14:24:42.146Z,56.83
2023-01-21T14:27:59.196Z,55.83
2023-01-21T14:30:43.679Z,37.65
2023-01-21T14:33:26.344Z,56.60
2023-01-21T14:36:26.814Z,42.78
2023-01-21T14:39:08.057Z,52.40
2023-01-21T14:42:03.768Z,54.35
2023-01-21T14:44:55.612Z,50.03
2023-01-21T14:47:33.862Z,52.85
2023-01-21T14:50:03.273Z,63.15
2023-01-21T14:52:47.953Z,65.38
2023-01-21T14:55:32.787Z,69.25
2023-01-21T14:58:03.137Z,67.15
2023-01-21T15:00:34.747Z,59.78
2023-01-21T15:03:30.214Z,59.80
2023-01-21T15:06:10.751Z,68.32
2023-01-21T15:08:47.909Z,63.17
2023-01-21T15:11:45.190Z,67.97
2023-01-21T15:14:47.053Z,65.38
2023-01-21T15:18:01.600Z,78.93
2023-01-21T15:21:02.199Z,65.63
2023-01-21T15:23:34.290Z,65.35
2023-01-21T15:26:09.859Z,67.28
2023-01-21T15:28:52.893Z,67.35
2023-01-21T15:31:25.618Z,55.30
2023-01-21T15:34:15.563Z,51.83
2023-01-21T15:36:58.045Z,50.20
2023-01-21T15:39:36.521Z,52.63
2023-01-21T15:42:46.807Z,47.53
2023-01-21T15:45:45.865Z,94.05
2023-01-21T15:48:41.833Z,68.15
2023-01-21T15:51:48.010Z,74.72
2023-01-21T15:54:25.963Z,56.78
2023-01-21T15:57:40.403Z,52.97
2023-01-21T16:00:50.662Z,50.97
2023-01-21T16:03:28.737Z,52.40
2023-01-21T16:06:16.013Z,57.38
2023-01-21T16:09:03.071Z,51.42
2023-01-21T16:12:25.659Z,43.25
2023-01-21T16:15:12.675Z,47.03
2023-01-21T16:18:11.476Z,50.30
2023-01-21T16:20:50.823Z,37.60
2023-01-21T16:23:23.555Z,50.25
2023-01-21T16:25:54.829Z,47.63
2023-01-21T16:28:23.919Z,46.55
2023-01-21T16:31:00.580Z,60.50
2023-01-21T16:33:29.781Z,51.30
2023-01-21T16:36:07.298Z,66.70
2023-01-21T16:38:39.010Z,52.70
2023-01-21T16:41:16.983Z,53.38
2023-01-21T16:43:51.925Z,52.85
2023-01-21T16:46:42.710Z,51.75
2023-01-21T16:49:19.954Z,53.78
2023-01-21T16:52:07.613Z,50.03
2023-01-21T16:54:48.069Z,53.27
2023-01-21T16:57:20.410Z,46.22
2023-01-21T16:59:49.968Z,47.35
2023-01-21T17:02:45.489Z,45.10
2023-01-21T17:05:16.537Z,44.75
2023-01-21T17:08:00.175Z,50.97
2023-01-21T17:10:40.106Z,41.80
2023-01-21T17:13:17.091Z,42.90
2023-01-21T17:16:01.062Z,42.20
2023-01-21T17:18:41.643Z,43.50
2023-01-21T17:21:16.793Z,38.10
2023-01-21T17:23:52.013Z,40.78
2023-01-21T17:26:32.982Z,51.72
2023-01-21T17:29:19.345Z,40.67
2023-01-21T17:32:26.666Z,49.30
2023-01-21T17:35:17.053Z,40.13
2023-01-21T17:38:04.544Z,38.55
2023-01-21T17:40:47.048Z,40.25
2023-01-21T17:43:25.867Z,39.53
2023-01-21T17:45:58.348Z,43.33
2023-01-21T17:48:40.486Z,43.50
2023-01-21T17:51:23.313Z,47.40
2023-01-21T17:54:01.038Z,37.38
2023-01-21T17:56:54.752Z,39.90
2023-01-21T17:59:35.474Z,39.67
2023-01-21T18:02:17.174Z,39.10
2023-01-21T18:04:47.365Z,42.17
2023-01-21T18:07:32.737Z,47.15
2023-01-21T18:10:04.207Z,47.78
2023-01-21T18:12:33.455Z,44.88
2023-01-21T18:15:03.605Z,47.28
2023-01-21T18:17:33.278Z,45.85
2023-01-21T18:20:05.691Z,44.88
2023-01-21T18:22:36.928Z,42.28
2023-01-21T18:25:08.361Z,47.47
2023-01-21T18:27:38.148Z,46.42
2023-01-21T18:30:23.774Z,53.72
2023-01-21T18:32:54.174Z,48.25
2023-01-21T18:35:29.760Z,43.90
2023-01-21T18:37:59.168Z,40.15
2023-01-21T18:40:28.462Z,39.35
2023-01-21T18:42:57.710Z,37.63
2023-01-21T18:45:30.602Z,41.83
2023-01-21T18:48:00.353Z,41.92
2023-01-21T18:50:31.604Z,44.47
2023-01-21T18:53:00.798Z,43.03
2023-01-21T18:55:31.316Z,47.78
2023-01-21T18:58:00.550Z,41.78
2023-01-21T19:00:35.462Z,41.33
2023-01-21T19:03:04.765Z,39.88
2023-01-21T19:05:40.108Z,41.70
2023-01-21T19:08:25.486Z,55.05
2023-01-21T19:10:55.203Z,60.47
2023-01-21T19:13:25.170Z,57.40
2023-01-21T19:15:54.494Z,62.40
2023-01-21T19:18:23.568Z,59.10
2023-01-21T19:20:52.696Z,55.60
2023-01-21T19:23:21.853Z,56.72
2023-01-21T19:25:57.004Z,52.47
2023-01-21T19:28:26.855Z,55.17
2023-01-21T19:30:56.221Z,50.75
2023-01-21T19:33:26.805Z,58.75
2023-01-21T19:36:04.673Z,60.75
2023-01-21T19:38:33.798Z,66.20
2023-01-21T19:41:02.877Z,57.92
2023-01-21T19:43:32.062Z,55.83
2023-01-21T19:46:01.204Z,55.20
2023-01-21T19:48:30.754Z,63.08
2023-01-21T19:50:59.878Z,59.75
2023-01-21T19:53:29.102Z,58.67
2023-01-21T19:55:59.275Z,57.15
2023-01-21T19:58:31.826Z,61.90
2023-01-21T20:01:01.065Z,55.13
2023-01-21T20:03:30.665Z,55.60
2023-01-21T20:06:06.753Z,55.50
2023-01-21T20:08:35.997Z,51.83
2023-01-21T20:11:05.285Z,59.90
2023-01-21T20:13:37.484Z,59.92
2023-01-21T20:16:19.717Z,54.95
2023-01-21T20:18:50.748Z,54.00
2023-01-21T20:21:19.821Z,49.63
2023-01-21T20:23:49.080Z,59.30
2023-01-21T20:26:28.603Z,56.42
2023-01-21T20:28:58.747Z,54.75
2023-01-21T20:31:28.001Z,56.88
2023-01-21T20:33:57.504Z,66.57
2023-01-21T20:36:28.765Z,59.20
2023-01-21T20:38:58.251Z,61.72
2023-01-21T20:41:27.324Z,57.35
2023-01-21T20:43:56.501Z,62.55
2023-01-21T20:46:30.694Z,58.30
2023-01-21T20:49:01.141Z,66.00
2023-01-21T20:51:30.689Z,65.45
2023-01-21T20:53:59.760Z,56.53
2023-01-21T20:56:33.987Z,52.97
2023-01-21T20:59:03.143Z,64.25
2023-01-21T21:01:35.577Z,62.35
2023-01-21T21:04:04.746Z,60.47
2023-01-21T21:06:34.457Z,52.67
2023-01-21T21:09:03.712Z,53.88
2023-01-21T21:11:32.787Z,56.75
2023-01-21T21:14:02.948Z,57.17
2023-01-21T21:16:34.801Z,57.10
2023-01-21T21:19:04.925Z,62.40
2023-01-21T21:21:34.096Z,56.50
2023-01-21T21:24:07.354Z,55.90
2023-01-21T21:26:39.426Z,54.17
2023-01-21T21:29:15.199Z,62.42
2023-01-21T21:31:44.465Z,56.55
2023-01-21T21:34:14.515Z,58.47
2023-01-21T21:36:43.984Z,59.63
2023-01-21T21:39:20.072Z,59.05
2023-01-21T21:42:07.227Z,59.75
2023-01-21T21:44:37.327Z,66.78
2023-01-21T21:47:24.494Z,62.67
2023-01-21T21:49:53.674Z,54.83
2023-01-21T21:52:23.935Z,55.78
2023-01-21T21:54:55.200Z,60.00
2023-01-21T21:57:24.290Z,65.28
2023-01-21T21:59:53.346Z,55.88
2023-01-21T22:02:22.549Z,62.58
2023-01-21T22:04:55.815Z,58.80
2023-01-21T22:07:24.969Z,55.95
2023-01-21T22:09:54.054Z,72.03
2023-01-21T22:12:23.165Z,62.15
2023-01-21T22:14:52.320Z,64.22
2023-01-21T22:17:21.415Z,63.78
2023-01-21T22:19:50.502Z,57.72
2023-01-21T22:22:19.656Z,63.42
2023-01-21T22:24:48.757Z,61.17
2023-01-21T22:27:17.954Z,60.78
2023-01-21T22:29:47.027Z,61.17
2023-01-21T22:32:17.178Z,55.88
2023-01-21T22:34:46.251Z,57.08
2023-01-21T22:37:15.391Z,63.50
2023-01-21T22:39:44.522Z,59.88
2023-01-21T22:42:13.582Z,60.05
2023-01-21T22:44:42.742Z,55.50
2023-01-21T22:47:12.476Z,58.50
2023-01-21T22:49:42.826Z,51.28
2023-01-21T22:52:11.955Z,54.58
2023-01-21T22:54:41.455Z,56.92
2023-01-21T22:57:10.552Z,56.53
2023-01-21T22:59:40.878Z,51.55
2023-01-21T23:02:10.009Z,55.83
2023-01-21T23:04:40.073Z,49.58
2023-01-21T23:07:09.331Z,62.03
2023-01-21T23:09:38.424Z,57.00
2023-01-21T23:12:10.036Z,64.20
2023-01-21T23:14:41.202Z,63.42
2023-01-21T23:17:10.377Z,69.38
2023-01-21T23:19:39.558Z,59.15
2023-01-21T23:22:08.765Z,58.97
2023-01-21T23:24:37.847Z,61.83
2023-01-21T23:27:06.999Z,54.97
2023-01-21T23:29:36.058Z,60.10
2023-01-21T23:32:05.480Z,58.90
2023-01-21T23:34:34.742Z,60.15
2023-01-21T23:37:03.856Z,68.03
2023-01-21T23:39:32.956Z,68.93
2023-01-21T23:42:02.268Z,71.22
2023-01-21T23:44:31.404Z,71.10
2023-01-21T23:47:00.482Z,67.85
2023-01-21T23:49:29.579Z,65.60
2023-01-21T23:51:58.659Z,67.45
2023-01-21T23:54:27.746Z,69.65
2023-01-21T23:56:57.593Z,65.55
2023-01-21T23:59:26.928Z,68.93
